sensor_id;sensor_type;location;lat;lon;timestamp;P1;durP1;ratioP1;P2;durP2;ratioP2
10831;SDS011;5469;48.574;8.768;2022-10-16T00:02:33;0.60;;;0.60;;
10831;SDS011;5469;48.574;8.768;2022-10-16T00:05:08;0.83;;;0.40;;
10831;SDS011;5469;48.574;8.768;2022-10-16T00:07:43;0.73;;;0.63;;
10831;SDS011;5469;48.574;8.768;2022-10-16T00:10:28;0.60;;;0.47;;
10831;SDS011;5469;48.574;8.768;2022-10-16T00:13:03;0.60;;;0.40;;
10831;SDS011;5469;48.574;8.768;2022-10-16T00:15:39;0.50;;;0.50;;
10831;SDS011;5469;48.574;8.768;2022-10-16T00:18:15;0.40;;;0.40;;
10831;SDS011;5469;48.574;8.768;2022-10-16T00:20:50;1.60;;;0.50;;
10831;SDS011;5469;48.574;8.768;2022-10-16T00:23:26;1.23;;;0.70;;
10831;SDS011;5469;48.574;8.768;2022-10-16T00:26:04;0.60;;;0.60;;
10831;SDS011;5469;48.574;8.768;2022-10-16T00:28:40;0.77;;;0.77;;
10831;SDS011;5469;48.574;8.768;2022-10-16T00:31:17;0.70;;;0.70;;
10831;SDS011;5469;48.574;8.768;2022-10-16T00:33:55;0.60;;;0.50;;
10831;SDS011;5469;48.574;8.768;2022-10-16T00:36:32;1.03;;;0.60;;
10831;SDS011;5469;48.574;8.768;2022-10-16T00:39:07;0.63;;;0.53;;
10831;SDS011;5469;48.574;8.768;2022-10-16T00:41:43;0.70;;;0.50;;
10831;SDS011;5469;48.574;8.768;2022-10-16T00:47:19;0.40;;;0.40;;
10831;SDS011;5469;48.574;8.768;2022-10-16T00:50:00;0.47;;;0.43;;
10831;SDS011;5469;48.574;8.768;2022-10-16T00:52:41;0.40;;;0.40;;
10831;SDS011;5469;48.574;8.768;2022-10-16T00:55:19;1.50;;;0.70;;
10831;SDS011;5469;48.574;8.768;2022-10-16T00:57:57;0.30;;;0.30;;
10831;SDS011;5469;48.574;8.768;2022-10-16T01:00:32;0.33;;;0.20;;
10831;SDS011;5469;48.574;8.768;2022-10-16T01:03:21;0.93;;;0.73;;
10831;SDS011;5469;48.574;8.768;2022-10-16T01:06:02;0.40;;;0.40;;
10831;SDS011;5469;48.574;8.768;2022-10-16T01:08:49;0.80;;;0.50;;
10831;SDS011;5469;48.574;8.768;2022-10-16T01:11:36;0.60;;;0.60;;
10831;SDS011;5469;48.574;8.768;2022-10-16T01:14:22;0.43;;;0.37;;
10831;SDS011;5469;48.574;8.768;2022-10-16T01:17:04;1.23;;;0.53;;
10831;SDS011;5469;48.574;8.768;2022-10-16T01:19:50;0.40;;;0.40;;
10831;SDS011;5469;48.574;8.768;2022-10-16T01:22:37;0.53;;;0.40;;
10831;SDS011;5469;48.574;8.768;2022-10-16T01:25:19;0.60;;;0.43;;
10831;SDS011;5469;48.574;8.768;2022-10-16T01:28:04;0.80;;;0.30;;
10831;SDS011;5469;48.574;8.768;2022-10-16T01:30:43;0.70;;;0.40;;
10831;SDS011;5469;48.574;8.768;2022-10-16T01:33:21;0.40;;;0.40;;
10831;SDS011;5469;48.574;8.768;2022-10-16T01:36:03;0.50;;;0.50;;
10831;SDS011;5469;48.574;8.768;2022-10-16T01:38:43;1.40;;;0.57;;
10831;SDS011;5469;48.574;8.768;2022-10-16T01:41:21;0.63;;;0.47;;
10831;SDS011;5469;48.574;8.768;2022-10-16T01:44:06;0.20;;;0.20;;
10831;SDS011;5469;48.574;8.768;2022-10-16T01:46:45;0.20;;;0.20;;
10831;SDS011;5469;48.574;8.768;2022-10-16T01:49:23;0.40;;;0.37;;
10831;SDS011;5469;48.574;8.768;2022-10-16T01:52:04;0.30;;;0.30;;
10831;SDS011;5469;48.574;8.768;2022-10-16T01:54:42;0.30;;;0.30;;
10831;SDS011;5469;48.574;8.768;2022-10-16T01:57:20;2.00;;;0.43;;
10831;SDS011;5469;48.574;8.768;2022-10-16T02:00:00;0.47;;;0.40;;
10831;SDS011;5469;48.574;8.768;2022-10-16T02:02:38;0.20;;;0.20;;
10831;SDS011;5469;48.574;8.768;2022-10-16T02:05:19;0.37;;;0.20;;
10831;SDS011;5469;48.574;8.768;2022-10-16T02:07:58;0.40;;;0.40;;
10831;SDS011;5469;48.574;8.768;2022-10-16T02:10:34;0.47;;;0.40;;
10831;SDS011;5469;48.574;8.768;2022-10-16T02:13:10;0.50;;;0.50;;
10831;SDS011;5469;48.574;8.768;2022-10-16T02:15:51;0.20;;;0.20;;
10831;SDS011;5469;48.574;8.768;2022-10-16T02:18:26;0.37;;;0.37;;
10831;SDS011;5469;48.574;8.768;2022-10-16T02:21:03;0.27;;;0.27;;
10831;SDS011;5469;48.574;8.768;2022-10-16T02:23:48;0.40;;;0.40;;
10831;SDS011;5469;48.574;8.768;2022-10-16T02:26:30;0.87;;;0.30;;
10831;SDS011;5469;48.574;8.768;2022-10-16T02:29:14;0.30;;;0.30;;
10831;SDS011;5469;48.574;8.768;2022-10-16T02:31:55;0.40;;;0.40;;
10831;SDS011;5469;48.574;8.768;2022-10-16T02:34:34;0.40;;;0.30;;
10831;SDS011;5469;48.574;8.768;2022-10-16T02:37:12;0.40;;;0.40;;
10831;SDS011;5469;48.574;8.768;2022-10-16T02:39:49;0.40;;;0.40;;
10831;SDS011;5469;48.574;8.768;2022-10-16T02:42:27;0.10;;;0.10;;
10831;SDS011;5469;48.574;8.768;2022-10-16T02:45:06;0.40;;;0.40;;
10831;SDS011;5469;48.574;8.768;2022-10-16T02:47:44;1.53;;;0.40;;
10831;SDS011;5469;48.574;8.768;2022-10-16T02:50:20;0.20;;;0.20;;
10831;SDS011;5469;48.574;8.768;2022-10-16T02:52:56;1.03;;;0.57;;
10831;SDS011;5469;48.574;8.768;2022-10-16T02:55:31;0.60;;;0.57;;
10831;SDS011;5469;48.574;8.768;2022-10-16T02:58:06;0.30;;;0.30;;
10831;SDS011;5469;48.574;8.768;2022-10-16T03:00:42;0.60;;;0.33;;
10831;SDS011;5469;48.574;8.768;2022-10-16T03:03:18;0.40;;;0.37;;
10831;SDS011;5469;48.574;8.768;2022-10-16T03:05:54;0.30;;;0.30;;
10831;SDS011;5469;48.574;8.768;2022-10-16T03:08:29;0.20;;;0.20;;
10831;SDS011;5469;48.574;8.768;2022-10-16T03:11:04;0.40;;;0.40;;
10831;SDS011;5469;48.574;8.768;2022-10-16T03:13:39;0.40;;;0.40;;
10831;SDS011;5469;48.574;8.768;2022-10-16T03:16:14;0.50;;;0.50;;
10831;SDS011;5469;48.574;8.768;2022-10-16T03:18:50;0.90;;;0.30;;
10831;SDS011;5469;48.574;8.768;2022-10-16T03:21:26;0.40;;;0.40;;
10831;SDS011;5469;48.574;8.768;2022-10-16T03:24:03;0.30;;;0.30;;
10831;SDS011;5469;48.574;8.768;2022-10-16T03:26:39;0.53;;;0.53;;
10831;SDS011;5469;48.574;8.768;2022-10-16T03:29:14;0.30;;;0.30;;
10831;SDS011;5469;48.574;8.768;2022-10-16T03:31:49;0.40;;;0.30;;
10831;SDS011;5469;48.574;8.768;2022-10-16T03:34:26;0.47;;;0.30;;
10831;SDS011;5469;48.574;8.768;2022-10-16T03:37:01;0.40;;;0.20;;
10831;SDS011;5469;48.574;8.768;2022-10-16T03:39:36;0.30;;;0.30;;
10831;SDS011;5469;48.574;8.768;2022-10-16T03:42:11;0.60;;;0.60;;
10831;SDS011;5469;48.574;8.768;2022-10-16T03:44:46;0.23;;;0.23;;
10831;SDS011;5469;48.574;8.768;2022-10-16T03:47:21;0.60;;;0.60;;
10831;SDS011;5469;48.574;8.768;2022-10-16T03:49:58;0.40;;;0.33;;
10831;SDS011;5469;48.574;8.768;2022-10-16T03:52:33;0.60;;;0.60;;
10831;SDS011;5469;48.574;8.768;2022-10-16T03:55:08;1.17;;;0.53;;
10831;SDS011;5469;48.574;8.768;2022-10-16T03:57:43;0.37;;;0.37;;
10831;SDS011;5469;48.574;8.768;2022-10-16T04:00:18;0.23;;;0.23;;
10831;SDS011;5469;48.574;8.768;2022-10-16T04:02:54;0.70;;;0.50;;
10831;SDS011;5469;48.574;8.768;2022-10-16T04:05:30;1.30;;;0.50;;
10831;SDS011;5469;48.574;8.768;2022-10-16T04:08:05;0.30;;;0.30;;
10831;SDS011;5469;48.574;8.768;2022-10-16T04:10:43;0.40;;;0.40;;
10831;SDS011;5469;48.574;8.768;2022-10-16T04:13:19;1.37;;;0.40;;
10831;SDS011;5469;48.574;8.768;2022-10-16T04:15:55;0.40;;;0.40;;
10831;SDS011;5469;48.574;8.768;2022-10-16T04:18:30;0.30;;;0.30;;
10831;SDS011;5469;48.574;8.768;2022-10-16T04:21:07;0.30;;;0.30;;
10831;SDS011;5469;48.574;8.768;2022-10-16T04:23:42;0.27;;;0.27;;
10831;SDS011;5469;48.574;8.768;2022-10-16T04:26:16;0.40;;;0.33;;
10831;SDS011;5469;48.574;8.768;2022-10-16T04:28:51;0.87;;;0.40;;
10831;SDS011;5469;48.574;8.768;2022-10-16T04:31:26;0.30;;;0.30;;
10831;SDS011;5469;48.574;8.768;2022-10-16T04:34:01;0.40;;;0.40;;
10831;SDS011;5469;48.574;8.768;2022-10-16T04:36:38;0.47;;;0.37;;
10831;SDS011;5469;48.574;8.768;2022-10-16T04:39:13;0.30;;;0.30;;
10831;SDS011;5469;48.574;8.768;2022-10-16T04:41:48;0.30;;;0.30;;
10831;SDS011;5469;48.574;8.768;2022-10-16T04:44:24;0.63;;;0.50;;
10831;SDS011;5469;48.574;8.768;2022-10-16T04:46:59;0.67;;;0.40;;
10831;SDS011;5469;48.574;8.768;2022-10-16T04:49:34;0.50;;;0.50;;
10831;SDS011;5469;48.574;8.768;2022-10-16T04:52:10;2.47;;;0.50;;
10831;SDS011;5469;48.574;8.768;2022-10-16T04:54:45;0.40;;;0.40;;
10831;SDS011;5469;48.574;8.768;2022-10-16T04:57:21;2.00;;;0.50;;
10831;SDS011;5469;48.574;8.768;2022-10-16T04:59:56;0.70;;;0.40;;
10831;SDS011;5469;48.574;8.768;2022-10-16T05:02:32;0.50;;;0.47;;
10831;SDS011;5469;48.574;8.768;2022-10-16T05:05:07;0.60;;;0.60;;
10831;SDS011;5469;48.574;8.768;2022-10-16T05:07:44;1.37;;;0.63;;
10831;SDS011;5469;48.574;8.768;2022-10-16T05:10:19;1.90;;;1.20;;
10831;SDS011;5469;48.574;8.768;2022-10-16T05:12:55;2.23;;;1.47;;
10831;SDS011;5469;48.574;8.768;2022-10-16T05:15:30;5.27;;;1.80;;
10831;SDS011;5469;48.574;8.768;2022-10-16T05:18:05;3.53;;;1.97;;
10831;SDS011;5469;48.574;8.768;2022-10-16T05:20:41;2.83;;;1.70;;
10831;SDS011;5469;48.574;8.768;2022-10-16T05:23:17;3.20;;;1.67;;
10831;SDS011;5469;48.574;8.768;2022-10-16T05:25:53;1.00;;;0.90;;
10831;SDS011;5469;48.574;8.768;2022-10-16T05:28:29;1.50;;;1.40;;
10831;SDS011;5469;48.574;8.768;2022-10-16T05:31:05;1.53;;;1.30;;
10831;SDS011;5469;48.574;8.768;2022-10-16T05:33:41;2.80;;;1.10;;
10831;SDS011;5469;48.574;8.768;2022-10-16T05:36:17;1.00;;;0.87;;
10831;SDS011;5469;48.574;8.768;2022-10-16T05:38:54;1.00;;;0.80;;
10831;SDS011;5469;48.574;8.768;2022-10-16T05:41:29;0.40;;;0.40;;
10831;SDS011;5469;48.574;8.768;2022-10-16T05:44:06;0.50;;;0.50;;
10831;SDS011;5469;48.574;8.768;2022-10-16T05:46:41;1.37;;;0.77;;
10831;SDS011;5469;48.574;8.768;2022-10-16T05:49:16;0.83;;;0.77;;
10831;SDS011;5469;48.574;8.768;2022-10-16T05:51:51;1.00;;;0.70;;
10831;SDS011;5469;48.574;8.768;2022-10-16T05:54:27;1.17;;;0.70;;
10831;SDS011;5469;48.574;8.768;2022-10-16T05:57:02;1.03;;;0.90;;
10831;SDS011;5469;48.574;8.768;2022-10-16T05:59:38;0.83;;;0.80;;
10831;SDS011;5469;48.574;8.768;2022-10-16T06:02:14;1.10;;;0.80;;
10831;SDS011;5469;48.574;8.768;2022-10-16T06:04:51;0.63;;;0.63;;
10831;SDS011;5469;48.574;8.768;2022-10-16T06:07:26;0.90;;;0.70;;
10831;SDS011;5469;48.574;8.768;2022-10-16T06:10:03;0.60;;;0.60;;
10831;SDS011;5469;48.574;8.768;2022-10-16T06:12:40;0.77;;;0.70;;
10831;SDS011;5469;48.574;8.768;2022-10-16T06:15:15;8.77;;;3.23;;
10831;SDS011;5469;48.574;8.768;2022-10-16T06:17:51;4.77;;;3.03;;
10831;SDS011;5469;48.574;8.768;2022-10-16T06:20:26;5.00;;;3.03;;
10831;SDS011;5469;48.574;8.768;2022-10-16T06:23:02;5.30;;;2.70;;
10831;SDS011;5469;48.574;8.768;2022-10-16T06:25:38;3.43;;;2.07;;
10831;SDS011;5469;48.574;8.768;2022-10-16T06:28:13;6.00;;;2.83;;
10831;SDS011;5469;48.574;8.768;2022-10-16T06:30:48;5.67;;;2.70;;
10831;SDS011;5469;48.574;8.768;2022-10-16T06:33:31;6.57;;;3.30;;
10831;SDS011;5469;48.574;8.768;2022-10-16T06:36:08;6.00;;;3.50;;
10831;SDS011;5469;48.574;8.768;2022-10-16T06:38:45;3.60;;;2.67;;
10831;SDS011;5469;48.574;8.768;2022-10-16T06:41:22;5.80;;;2.60;;
10831;SDS011;5469;48.574;8.768;2022-10-16T06:43:58;3.03;;;1.80;;
10831;SDS011;5469;48.574;8.768;2022-10-16T06:46:36;2.80;;;1.63;;
10831;SDS011;5469;48.574;8.768;2022-10-16T06:49:13;2.03;;;1.30;;
10831;SDS011;5469;48.574;8.768;2022-10-16T06:51:54;1.60;;;1.27;;
10831;SDS011;5469;48.574;8.768;2022-10-16T06:54:29;1.37;;;1.17;;
10831;SDS011;5469;48.574;8.768;2022-10-16T06:57:05;1.50;;;1.10;;
10831;SDS011;5469;48.574;8.768;2022-10-16T06:59:45;1.00;;;0.87;;
10831;SDS011;5469;48.574;8.768;2022-10-16T07:02:20;0.80;;;0.70;;
10831;SDS011;5469;48.574;8.768;2022-10-16T07:04:58;1.03;;;0.70;;
10831;SDS011;5469;48.574;8.768;2022-10-16T07:07:35;0.80;;;0.80;;
10831;SDS011;5469;48.574;8.768;2022-10-16T07:10:10;0.67;;;0.57;;
10831;SDS011;5469;48.574;8.768;2022-10-16T07:12:47;0.97;;;0.83;;
10831;SDS011;5469;48.574;8.768;2022-10-16T07:15:26;0.60;;;0.60;;
10831;SDS011;5469;48.574;8.768;2022-10-16T07:18:03;0.50;;;0.50;;
10831;SDS011;5469;48.574;8.768;2022-10-16T07:20:39;0.73;;;0.70;;
10831;SDS011;5469;48.574;8.768;2022-10-16T07:23:13;0.80;;;0.60;;
10831;SDS011;5469;48.574;8.768;2022-10-16T07:25:53;0.60;;;0.60;;
10831;SDS011;5469;48.574;8.768;2022-10-16T07:28:30;0.87;;;0.40;;
10831;SDS011;5469;48.574;8.768;2022-10-16T07:31:09;0.83;;;0.53;;
10831;SDS011;5469;48.574;8.768;2022-10-16T07:33:47;0.70;;;0.70;;
10831;SDS011;5469;48.574;8.768;2022-10-16T07:36:23;1.30;;;0.47;;
10831;SDS011;5469;48.574;8.768;2022-10-16T07:39:00;0.57;;;0.50;;
10831;SDS011;5469;48.574;8.768;2022-10-16T07:41:35;1.10;;;0.50;;
10831;SDS011;5469;48.574;8.768;2022-10-16T07:44:12;0.37;;;0.37;;
10831;SDS011;5469;48.574;8.768;2022-10-16T07:46:48;0.60;;;0.47;;
10831;SDS011;5469;48.574;8.768;2022-10-16T07:49:23;0.67;;;0.60;;
10831;SDS011;5469;48.574;8.768;2022-10-16T07:51:58;0.37;;;0.37;;
10831;SDS011;5469;48.574;8.768;2022-10-16T07:54:33;0.67;;;0.40;;
10831;SDS011;5469;48.574;8.768;2022-10-16T07:57:07;1.40;;;0.73;;
10831;SDS011;5469;48.574;8.768;2022-10-16T07:59:44;0.70;;;0.70;;
10831;SDS011;5469;48.574;8.768;2022-10-16T08:02:19;1.20;;;0.47;;
10831;SDS011;5469;48.574;8.768;2022-10-16T08:04:54;0.30;;;0.30;;
10831;SDS011;5469;48.574;8.768;2022-10-16T08:07:29;0.80;;;0.43;;
10831;SDS011;5469;48.574;8.768;2022-10-16T08:10:04;3.13;;;0.50;;
10831;SDS011;5469;48.574;8.768;2022-10-16T08:12:44;0.20;;;0.20;;
10831;SDS011;5469;48.574;8.768;2022-10-16T08:15:21;0.30;;;0.30;;
10831;SDS011;5469;48.574;8.768;2022-10-16T08:17:56;0.43;;;0.43;;
10831;SDS011;5469;48.574;8.768;2022-10-16T08:20:34;1.03;;;0.50;;
10831;SDS011;5469;48.574;8.768;2022-10-16T08:23:10;0.80;;;0.40;;
10831;SDS011;5469;48.574;8.768;2022-10-16T08:25:46;0.43;;;0.43;;
10831;SDS011;5469;48.574;8.768;2022-10-16T08:28:22;1.70;;;0.30;;
10831;SDS011;5469;48.574;8.768;2022-10-16T08:31:05;0.40;;;0.40;;
10831;SDS011;5469;48.574;8.768;2022-10-16T08:33:40;2.50;;;0.30;;
10831;SDS011;5469;48.574;8.768;2022-10-16T08:36:18;0.40;;;0.40;;
10831;SDS011;5469;48.574;8.768;2022-10-16T08:38:53;1.67;;;0.80;;
10831;SDS011;5469;48.574;8.768;2022-10-16T08:41:35;0.30;;;0.30;;
10831;SDS011;5469;48.574;8.768;2022-10-16T08:44:41;0.60;;;0.50;;
10831;SDS011;5469;48.574;8.768;2022-10-16T08:47:35;0.43;;;0.43;;
10831;SDS011;5469;48.574;8.768;2022-10-16T08:50:19;1.97;;;0.50;;
10831;SDS011;5469;48.574;8.768;2022-10-16T08:52:58;0.63;;;0.50;;
10831;SDS011;5469;48.574;8.768;2022-10-16T08:55:37;2.03;;;0.53;;
10831;SDS011;5469;48.574;8.768;2022-10-16T08:58:16;0.50;;;0.40;;
10831;SDS011;5469;48.574;8.768;2022-10-16T09:00:53;0.60;;;0.37;;
10831;SDS011;5469;48.574;8.768;2022-10-16T09:03:36;0.37;;;0.37;;
10831;SDS011;5469;48.574;8.768;2022-10-16T09:06:25;0.53;;;0.53;;
10831;SDS011;5469;48.574;8.768;2022-10-16T09:09:11;0.43;;;0.43;;
10831;SDS011;5469;48.574;8.768;2022-10-16T09:12:05;0.33;;;0.33;;
10831;SDS011;5469;48.574;8.768;2022-10-16T09:14:54;0.30;;;0.30;;
10831;SDS011;5469;48.574;8.768;2022-10-16T09:17:37;0.50;;;0.47;;
10831;SDS011;5469;48.574;8.768;2022-10-16T09:20:20;0.50;;;0.50;;
10831;SDS011;5469;48.574;8.768;2022-10-16T09:23:13;1.73;;;0.67;;
10831;SDS011;5469;48.574;8.768;2022-10-16T09:25:50;0.47;;;0.40;;
10831;SDS011;5469;48.574;8.768;2022-10-16T09:28:28;1.13;;;0.60;;
10831;SDS011;5469;48.574;8.768;2022-10-16T09:31:03;0.63;;;0.60;;
10831;SDS011;5469;48.574;8.768;2022-10-16T09:33:43;2.63;;;0.40;;
10831;SDS011;5469;48.574;8.768;2022-10-16T09:36:25;0.70;;;0.70;;
10831;SDS011;5469;48.574;8.768;2022-10-16T09:39:02;0.40;;;0.40;;
10831;SDS011;5469;48.574;8.768;2022-10-16T09:41:40;0.30;;;0.30;;
10831;SDS011;5469;48.574;8.768;2022-10-16T09:44:18;0.53;;;0.53;;
10831;SDS011;5469;48.574;8.768;2022-10-16T09:47:01;0.63;;;0.60;;
10831;SDS011;5469;48.574;8.768;2022-10-16T09:49:37;0.57;;;0.57;;
10831;SDS011;5469;48.574;8.768;2022-10-16T09:52:25;0.60;;;0.60;;
10831;SDS011;5469;48.574;8.768;2022-10-16T09:55:02;0.50;;;0.50;;
10831;SDS011;5469;48.574;8.768;2022-10-16T09:57:49;0.40;;;0.37;;
10831;SDS011;5469;48.574;8.768;2022-10-16T10:00:25;0.47;;;0.47;;
10831;SDS011;5469;48.574;8.768;2022-10-16T10:03:01;1.67;;;0.47;;
10831;SDS011;5469;48.574;8.768;2022-10-16T10:05:47;1.17;;;0.50;;
10831;SDS011;5469;48.574;8.768;2022-10-16T10:08:24;0.70;;;0.47;;
10831;SDS011;5469;48.574;8.768;2022-10-16T10:11:01;0.40;;;0.40;;
10831;SDS011;5469;48.574;8.768;2022-10-16T10:13:37;0.47;;;0.47;;
10831;SDS011;5469;48.574;8.768;2022-10-16T10:16:23;0.33;;;0.33;;
10831;SDS011;5469;48.574;8.768;2022-10-16T10:18:58;0.50;;;0.50;;
10831;SDS011;5469;48.574;8.768;2022-10-16T10:21:34;0.70;;;0.50;;
10831;SDS011;5469;48.574;8.768;2022-10-16T10:24:14;0.60;;;0.60;;
10831;SDS011;5469;48.574;8.768;2022-10-16T10:26:54;0.90;;;0.60;;
10831;SDS011;5469;48.574;8.768;2022-10-16T10:29:41;1.20;;;0.53;;
10831;SDS011;5469;48.574;8.768;2022-10-16T10:32:24;0.87;;;0.67;;
10831;SDS011;5469;48.574;8.768;2022-10-16T10:35:14;0.37;;;0.37;;
10831;SDS011;5469;48.574;8.768;2022-10-16T10:37:58;0.60;;;0.50;;
10831;SDS011;5469;48.574;8.768;2022-10-16T10:40:45;0.50;;;0.50;;
10831;SDS011;5469;48.574;8.768;2022-10-16T10:43:33;0.63;;;0.47;;
10831;SDS011;5469;48.574;8.768;2022-10-16T10:46:23;0.47;;;0.47;;
10831;SDS011;5469;48.574;8.768;2022-10-16T10:49:15;0.70;;;0.50;;
10831;SDS011;5469;48.574;8.768;2022-10-16T10:52:02;0.47;;;0.47;;
10831;SDS011;5469;48.574;8.768;2022-10-16T10:54:49;2.03;;;0.50;;
10831;SDS011;5469;48.574;8.768;2022-10-16T10:57:34;0.60;;;0.60;;
10831;SDS011;5469;48.574;8.768;2022-10-16T11:00:20;0.60;;;0.60;;
10831;SDS011;5469;48.574;8.768;2022-10-16T11:03:02;0.50;;;0.50;;
10831;SDS011;5469;48.574;8.768;2022-10-16T11:05:47;0.30;;;0.30;;
10831;SDS011;5469;48.574;8.768;2022-10-16T11:08:31;0.40;;;0.40;;
10831;SDS011;5469;48.574;8.768;2022-10-16T11:11:13;0.73;;;0.67;;
10831;SDS011;5469;48.574;8.768;2022-10-16T11:13:55;0.50;;;0.50;;
10831;SDS011;5469;48.574;8.768;2022-10-16T11:16:33;0.80;;;0.60;;
10831;SDS011;5469;48.574;8.768;2022-10-16T11:19:12;0.77;;;0.60;;
10831;SDS011;5469;48.574;8.768;2022-10-16T11:21:56;0.50;;;0.50;;
10831;SDS011;5469;48.574;8.768;2022-10-16T11:24:40;0.93;;;0.73;;
10831;SDS011;5469;48.574;8.768;2022-10-16T11:27:20;0.53;;;0.53;;
10831;SDS011;5469;48.574;8.768;2022-10-16T11:30:05;0.37;;;0.37;;
10831;SDS011;5469;48.574;8.768;2022-10-16T11:35:53;0.50;;;0.50;;
10831;SDS011;5469;48.574;8.768;2022-10-16T11:38:34;0.30;;;0.30;;
10831;SDS011;5469;48.574;8.768;2022-10-16T11:41:18;0.47;;;0.40;;
10831;SDS011;5469;48.574;8.768;2022-10-16T11:44:01;0.60;;;0.60;;
10831;SDS011;5469;48.574;8.768;2022-10-16T11:46:50;0.43;;;0.43;;
10831;SDS011;5469;48.574;8.768;2022-10-16T11:49:32;0.45;;;0.45;;
10831;SDS011;5469;48.574;8.768;2022-10-16T11:52:12;0.60;;;0.50;;
10831;SDS011;5469;48.574;8.768;2022-10-16T11:54:54;0.45;;;0.45;;
10831;SDS011;5469;48.574;8.768;2022-10-16T11:57:38;0.60;;;0.60;;
10831;SDS011;5469;48.574;8.768;2022-10-16T12:00:20;0.55;;;0.45;;
10831;SDS011;5469;48.574;8.768;2022-10-16T12:03:02;0.65;;;0.43;;
10831;SDS011;5469;48.574;8.768;2022-10-16T12:05:57;0.50;;;0.50;;
10831;SDS011;5469;48.574;8.768;2022-10-16T12:08:40;0.57;;;0.40;;
10831;SDS011;5469;48.574;8.768;2022-10-16T12:11:23;0.50;;;0.50;;
10831;SDS011;5469;48.574;8.768;2022-10-16T12:14:18;1.85;;;0.80;;
10831;SDS011;5469;48.574;8.768;2022-10-16T12:16:54;0.63;;;0.52;;
10831;SDS011;5469;48.574;8.768;2022-10-16T12:19:32;0.75;;;0.63;;
10831;SDS011;5469;48.574;8.768;2022-10-16T12:22:15;1.15;;;0.75;;
10831;SDS011;5469;48.574;8.768;2022-10-16T12:24:52;0.60;;;0.60;;
10831;SDS011;5469;48.574;8.768;2022-10-16T12:27:28;1.92;;;0.60;;
10831;SDS011;5469;48.574;8.768;2022-10-16T12:30:06;1.05;;;0.70;;
10831;SDS011;5469;48.574;8.768;2022-10-16T12:32:53;0.77;;;0.77;;
10831;SDS011;5469;48.574;8.768;2022-10-16T12:35:31;4.13;;;3.05;;
10831;SDS011;5469;48.574;8.768;2022-10-16T12:38:17;3.50;;;2.80;;
10831;SDS011;5469;48.574;8.768;2022-10-16T12:40:55;3.22;;;1.85;;
10831;SDS011;5469;48.574;8.768;2022-10-16T12:43:37;2.13;;;1.92;;
10831;SDS011;5469;48.574;8.768;2022-10-16T12:46:22;5.60;;;2.05;;
10831;SDS011;5469;48.574;8.768;2022-10-16T12:49:21;5.80;;;1.83;;
10831;SDS011;5469;48.574;8.768;2022-10-16T12:55:12;1.45;;;1.00;;
10831;SDS011;5469;48.574;8.768;2022-10-16T13:01:21;1.60;;;1.17;;
10831;SDS011;5469;48.574;8.768;2022-10-16T13:04:10;3.97;;;1.90;;
10831;SDS011;5469;48.574;8.768;2022-10-16T13:07:09;3.45;;;2.08;;
10831;SDS011;5469;48.574;8.768;2022-10-16T13:10:09;3.30;;;2.38;;
10831;SDS011;5469;48.574;8.768;2022-10-16T13:13:01;3.70;;;1.90;;
10831;SDS011;5469;48.574;8.768;2022-10-16T13:16:02;2.30;;;1.30;;
10831;SDS011;5469;48.574;8.768;2022-10-16T13:18:48;0.93;;;0.77;;
10831;SDS011;5469;48.574;8.768;2022-10-16T13:21:31;1.30;;;0.90;;
10831;SDS011;5469;48.574;8.768;2022-10-16T13:24:16;0.80;;;0.80;;
10831;SDS011;5469;48.574;8.768;2022-10-16T13:27:04;1.65;;;0.77;;
10831;SDS011;5469;48.574;8.768;2022-10-16T13:29:52;0.80;;;0.55;;
10831;SDS011;5469;48.574;8.768;2022-10-16T13:32:47;1.42;;;1.10;;
10831;SDS011;5469;48.574;8.768;2022-10-16T13:35:45;0.88;;;0.68;;
10831;SDS011;5469;48.574;8.768;2022-10-16T13:38:21;1.40;;;0.70;;
10831;SDS011;5469;48.574;8.768;2022-10-16T13:41:02;0.68;;;0.60;;
10831;SDS011;5469;48.574;8.768;2022-10-16T13:43:49;0.75;;;0.75;;
10831;SDS011;5469;48.574;8.768;2022-10-16T13:46:29;0.95;;;0.70;;
10831;SDS011;5469;48.574;8.768;2022-10-16T13:49:11;1.77;;;0.75;;
10831;SDS011;5469;48.574;8.768;2022-10-16T13:51:54;1.08;;;0.90;;
10831;SDS011;5469;48.574;8.768;2022-10-16T13:54:30;1.55;;;1.02;;
10831;SDS011;5469;48.574;8.768;2022-10-16T13:57:05;0.70;;;0.68;;
10831;SDS011;5469;48.574;8.768;2022-10-16T13:59:46;2.25;;;0.90;;
10831;SDS011;5469;48.574;8.768;2022-10-16T14:02:25;0.60;;;0.60;;
10831;SDS011;5469;48.574;8.768;2022-10-16T14:05:04;3.17;;;0.98;;
10831;SDS011;5469;48.574;8.768;2022-10-16T14:07:47;1.70;;;0.55;;
10831;SDS011;5469;48.574;8.768;2022-10-16T14:10:25;0.57;;;0.57;;
10831;SDS011;5469;48.574;8.768;2022-10-16T14:13:04;0.50;;;0.50;;
10831;SDS011;5469;48.574;8.768;2022-10-16T14:15:47;0.50;;;0.50;;
10831;SDS011;5469;48.574;8.768;2022-10-16T14:18:26;0.60;;;0.60;;
10831;SDS011;5469;48.574;8.768;2022-10-16T14:21:02;0.80;;;0.80;;
10831;SDS011;5469;48.574;8.768;2022-10-16T14:23:40;2.55;;;0.98;;
10831;SDS011;5469;48.574;8.768;2022-10-16T14:26:17;1.15;;;1.02;;
10831;SDS011;5469;48.574;8.768;2022-10-16T14:29:04;0.50;;;0.50;;
10831;SDS011;5469;48.574;8.768;2022-10-16T14:31:55;0.57;;;0.45;;
10831;SDS011;5469;48.574;8.768;2022-10-16T14:34:33;0.68;;;0.65;;
10831;SDS011;5469;48.574;8.768;2022-10-16T14:37:14;0.73;;;0.63;;
10831;SDS011;5469;48.574;8.768;2022-10-16T14:39:56;0.63;;;0.63;;
10831;SDS011;5469;48.574;8.768;2022-10-16T14:42:33;0.50;;;0.50;;
10831;SDS011;5469;48.574;8.768;2022-10-16T14:45:09;1.33;;;0.70;;
10831;SDS011;5469;48.574;8.768;2022-10-16T14:47:53;0.77;;;0.70;;
10831;SDS011;5469;48.574;8.768;2022-10-16T14:50:31;0.95;;;0.65;;
10831;SDS011;5469;48.574;8.768;2022-10-16T14:53:10;1.10;;;0.60;;
10831;SDS011;5469;48.574;8.768;2022-10-16T14:55:47;0.70;;;0.70;;
10831;SDS011;5469;48.574;8.768;2022-10-16T14:58:23;0.70;;;0.70;;
10831;SDS011;5469;48.574;8.768;2022-10-16T15:00:59;0.90;;;0.90;;
10831;SDS011;5469;48.574;8.768;2022-10-16T15:03:40;0.75;;;0.63;;
10831;SDS011;5469;48.574;8.768;2022-10-16T15:06:16;0.90;;;0.60;;
10831;SDS011;5469;48.574;8.768;2022-10-16T15:08:52;1.25;;;0.88;;
10831;SDS011;5469;48.574;8.768;2022-10-16T15:11:28;0.70;;;0.70;;
10831;SDS011;5469;48.574;8.768;2022-10-16T15:14:05;0.50;;;0.50;;
10831;SDS011;5469;48.574;8.768;2022-10-16T15:16:41;1.15;;;0.82;;
10831;SDS011;5469;48.574;8.768;2022-10-16T15:19:19;0.70;;;0.70;;
10831;SDS011;5469;48.574;8.768;2022-10-16T15:21:54;1.45;;;0.90;;
10831;SDS011;5469;48.574;8.768;2022-10-16T15:24:29;0.80;;;0.70;;
10831;SDS011;5469;48.574;8.768;2022-10-16T15:27:05;0.80;;;0.60;;
10831;SDS011;5469;48.574;8.768;2022-10-16T15:29:40;0.80;;;0.80;;
10831;SDS011;5469;48.574;8.768;2022-10-16T15:32:15;2.15;;;0.80;;
10831;SDS011;5469;48.574;8.768;2022-10-16T15:34:53;0.60;;;0.60;;
10831;SDS011;5469;48.574;8.768;2022-10-16T15:37:29;1.33;;;0.77;;
10831;SDS011;5469;48.574;8.768;2022-10-16T15:40:05;1.27;;;0.90;;
10831;SDS011;5469;48.574;8.768;2022-10-16T15:42:41;0.80;;;0.80;;
10831;SDS011;5469;48.574;8.768;2022-10-16T15:45:17;0.80;;;0.80;;
10831;SDS011;5469;48.574;8.768;2022-10-16T15:47:53;0.65;;;0.65;;
10831;SDS011;5469;48.574;8.768;2022-10-16T15:50:31;1.83;;;0.77;;
10831;SDS011;5469;48.574;8.768;2022-10-16T15:53:09;0.63;;;0.60;;
10831;SDS011;5469;48.574;8.768;2022-10-16T15:55:45;0.75;;;0.75;;
10831;SDS011;5469;48.574;8.768;2022-10-16T15:58:21;1.55;;;0.70;;
10831;SDS011;5469;48.574;8.768;2022-10-16T16:00:57;0.47;;;0.47;;
10831;SDS011;5469;48.574;8.768;2022-10-16T16:03:33;0.93;;;0.70;;
10831;SDS011;5469;48.574;8.768;2022-10-16T16:06:13;0.57;;;0.55;;
10831;SDS011;5469;48.574;8.768;2022-10-16T16:08:52;0.70;;;0.70;;
10831;SDS011;5469;48.574;8.768;2022-10-16T16:11:29;0.82;;;0.82;;
10831;SDS011;5469;48.574;8.768;2022-10-16T16:14:09;0.88;;;0.75;;
10831;SDS011;5469;48.574;8.768;2022-10-16T16:16:48;0.90;;;0.85;;
10831;SDS011;5469;48.574;8.768;2022-10-16T16:19:23;1.08;;;0.82;;
10831;SDS011;5469;48.574;8.768;2022-10-16T16:22:01;0.75;;;0.70;;
10831;SDS011;5469;48.574;8.768;2022-10-16T16:24:39;0.73;;;0.63;;
10831;SDS011;5469;48.574;8.768;2022-10-16T16:27:14;0.82;;;0.70;;